sensor_id;sensor_type;location;lat;lon;timestamp;P1;durP1;ratioP1;P2;durP2;ratioP2
52918;SDS011;38793;52.690;6.812;2023-04-21T00:01:58;30.05;;;22.65;;
52918;SDS011;38793;52.690;6.812;2023-04-21T00:04:24;26.67;;;22.42;;
52918;SDS011;38793;52.690;6.812;2023-04-21T00:06:50;31.23;;;22.38;;
52918;SDS011;38793;52.690;6.812;2023-04-21T00:09:17;31.65;;;23.23;;
52918;SDS011;38793;52.690;6.812;2023-04-21T00:11:43;31.27;;;22.60;;
52918;SDS011;38793;52.690;6.812;2023-04-21T00:14:08;33.17;;;23.08;;
52918;SDS011;38793;52.690;6.812;2023-04-21T00:16:34;30.02;;;21.75;;
52918;SDS011;38793;52.690;6.812;2023-04-21T00:19:00;34.20;;;21.15;;
52918;SDS011;38793;52.690;6.812;2023-04-21T00:23:52;29.77;;;21.23;;
52918;SDS011;38793;52.690;6.812;2023-04-21T00:26:17;28.15;;;21.40;;
52918;SDS011;38793;52.690;6.812;2023-04-21T00:28:44;27.13;;;21.85;;
52918;SDS011;38793;52.690;6.812;2023-04-21T00:31:10;28.97;;;21.63;;
52918;SDS011;38793;52.690;6.812;2023-04-21T00:33:36;32.10;;;22.17;;
52918;SDS011;38793;52.690;6.812;2023-04-21T00:36:01;25.75;;;21.05;;
52918;SDS011;38793;52.690;6.812;2023-04-21T00:38:27;29.10;;;19.60;;
52918;SDS011;38793;52.690;6.812;2023-04-21T00:40:53;28.35;;;20.83;;
52918;SDS011;38793;52.690;6.812;2023-04-21T00:43:19;31.80;;;18.77;;
52918;SDS011;38793;52.690;6.812;2023-04-21T00:45:44;25.60;;;19.98;;
52918;SDS011;38793;52.690;6.812;2023-04-21T00:48:11;30.65;;;20.25;;
52918;SDS011;38793;52.690;6.812;2023-04-21T00:50:36;30.10;;;19.42;;
52918;SDS011;38793;52.690;6.812;2023-04-21T00:53:02;30.83;;;20.17;;
52918;SDS011;38793;52.690;6.812;2023-04-21T00:55:28;28.35;;;19.10;;
52918;SDS011;38793;52.690;6.812;2023-04-21T00:57:55;32.67;;;18.98;;
52918;SDS011;38793;52.690;6.812;2023-04-21T01:02:47;30.83;;;19.02;;
52918;SDS011;38793;52.690;6.812;2023-04-21T01:05:13;30.00;;;18.95;;
52918;SDS011;38793;52.690;6.812;2023-04-21T01:07:40;25.55;;;18.00;;
52918;SDS011;38793;52.690;6.812;2023-04-21T01:10:07;27.45;;;18.95;;
52918;SDS011;38793;52.690;6.812;2023-04-21T01:12:33;23.90;;;17.65;;
52918;SDS011;38793;52.690;6.812;2023-04-21T01:15:07;28.65;;;17.63;;
52918;SDS011;38793;52.690;6.812;2023-04-21T01:17:33;28.23;;;17.77;;
52918;SDS011;38793;52.690;6.812;2023-04-21T01:20:02;28.55;;;17.58;;
52918;SDS011;38793;52.690;6.812;2023-04-21T01:22:33;23.05;;;16.00;;
52918;SDS011;38793;52.690;6.812;2023-04-21T01:25:01;26.02;;;17.45;;
52918;SDS011;38793;52.690;6.812;2023-04-21T01:27:27;26.35;;;17.40;;
52918;SDS011;38793;52.690;6.812;2023-04-21T01:29:53;24.23;;;16.40;;
52918;SDS011;38793;52.690;6.812;2023-04-21T01:32:20;21.77;;;15.73;;
52918;SDS011;38793;52.690;6.812;2023-04-21T01:34:48;26.95;;;15.38;;
52918;SDS011;38793;52.690;6.812;2023-04-21T01:39:41;22.42;;;15.30;;
52918;SDS011;38793;52.690;6.812;2023-04-21T01:42:09;24.40;;;15.60;;
52918;SDS011;38793;52.690;6.812;2023-04-21T01:44:35;22.65;;;15.23;;
52918;SDS011;38793;52.690;6.812;2023-04-21T01:47:01;22.20;;;16.80;;
52918;SDS011;38793;52.690;6.812;2023-04-21T01:49:28;27.23;;;15.55;;
52918;SDS011;38793;52.690;6.812;2023-04-21T01:51:53;21.53;;;15.00;;
52918;SDS011;38793;52.690;6.812;2023-04-21T01:54:19;17.55;;;14.63;;
52918;SDS011;38793;52.690;6.812;2023-04-21T01:56:45;24.88;;;15.48;;
52918;SDS011;38793;52.690;6.812;2023-04-21T01:59:10;25.13;;;15.00;;
52918;SDS011;38793;52.690;6.812;2023-04-21T02:01:36;19.10;;;14.17;;
52918;SDS011;38793;52.690;6.812;2023-04-21T02:04:02;20.80;;;14.23;;
52918;SDS011;38793;52.690;6.812;2023-04-21T02:06:28;20.63;;;14.05;;
52918;SDS011;38793;52.690;6.812;2023-04-21T02:08:55;20.00;;;13.85;;
52918;SDS011;38793;52.690;6.812;2023-04-21T02:11:22;20.27;;;15.18;;
52918;SDS011;38793;52.690;6.812;2023-04-21T02:13:49;20.58;;;14.68;;
52918;SDS011;38793;52.690;6.812;2023-04-21T02:16:18;20.63;;;14.07;;
52918;SDS011;38793;52.690;6.812;2023-04-21T02:18:44;18.75;;;13.40;;
52918;SDS011;38793;52.690;6.812;2023-04-21T02:21:11;20.08;;;13.43;;
52918;SDS011;38793;52.690;6.812;2023-04-21T02:23:36;22.88;;;13.18;;
52918;SDS011;38793;52.690;6.812;2023-04-21T02:26:02;17.75;;;12.80;;
52918;SDS011;38793;52.690;6.812;2023-04-21T02:28:28;22.52;;;14.27;;
52918;SDS011;38793;52.690;6.812;2023-04-21T02:30:55;22.42;;;12.68;;
52918;SDS011;38793;52.690;6.812;2023-04-21T02:33:21;20.70;;;12.73;;
52918;SDS011;38793;52.690;6.812;2023-04-21T02:35:46;21.80;;;13.13;;
52918;SDS011;38793;52.690;6.812;2023-04-21T02:38:12;16.13;;;12.45;;
52918;SDS011;38793;52.690;6.812;2023-04-21T02:40:38;16.97;;;13.07;;
52918;SDS011;38793;52.690;6.812;2023-04-21T02:43:03;18.45;;;13.20;;
52918;SDS011;38793;52.690;6.812;2023-04-21T02:45:29;19.77;;;13.73;;
52918;SDS011;38793;52.690;6.812;2023-04-21T02:47:54;17.37;;;12.83;;
52918;SDS011;38793;52.690;6.812;2023-04-21T02:50:20;17.67;;;12.87;;
52918;SDS011;38793;52.690;6.812;2023-04-21T02:52:46;17.00;;;12.03;;
52918;SDS011;38793;52.690;6.812;2023-04-21T02:55:11;16.40;;;12.27;;
52918;SDS011;38793;52.690;6.812;2023-04-21T02:57:37;21.97;;;12.60;;
52918;SDS011;38793;52.690;6.812;2023-04-21T03:00:03;18.73;;;13.10;;
52918;SDS011;38793;52.690;6.812;2023-04-21T03:02:29;15.50;;;12.38;;
52918;SDS011;38793;52.690;6.812;2023-04-21T03:04:55;19.77;;;12.07;;
52918;SDS011;38793;52.690;6.812;2023-04-21T03:07:20;21.30;;;13.43;;
52918;SDS011;38793;52.690;6.812;2023-04-21T03:09:46;18.93;;;13.40;;
52918;SDS011;38793;52.690;6.812;2023-04-21T03:12:11;15.07;;;12.00;;
52918;SDS011;38793;52.690;6.812;2023-04-21T03:14:37;23.27;;;12.57;;
52918;SDS011;38793;52.690;6.812;2023-04-21T03:17:03;15.35;;;12.10;;
52918;SDS011;38793;52.690;6.812;2023-04-21T03:19:28;17.87;;;12.57;;
52918;SDS011;38793;52.690;6.812;2023-04-21T03:24:20;16.73;;;11.60;;
52918;SDS011;38793;52.690;6.812;2023-04-21T03:29:12;18.27;;;11.27;;
52918;SDS011;38793;52.690;6.812;2023-04-21T03:31:38;15.57;;;11.82;;
52918;SDS011;38793;52.690;6.812;2023-04-21T03:34:03;16.27;;;11.87;;
52918;SDS011;38793;52.690;6.812;2023-04-21T03:36:29;16.27;;;11.53;;
52918;SDS011;38793;52.690;6.812;2023-04-21T03:38:55;22.50;;;12.68;;
52918;SDS011;38793;52.690;6.812;2023-04-21T03:41:22;17.58;;;11.77;;
52918;SDS011;38793;52.690;6.812;2023-04-21T03:43:51;17.67;;;11.57;;
52918;SDS011;38793;52.690;6.812;2023-04-21T03:46:20;17.88;;;11.75;;
52918;SDS011;38793;52.690;6.812;2023-04-21T03:48:46;17.40;;;12.13;;
52918;SDS011;38793;52.690;6.812;2023-04-21T03:53:38;20.88;;;12.55;;
52918;SDS011;38793;52.690;6.812;2023-04-21T03:56:03;17.23;;;11.67;;
52918;SDS011;38793;52.690;6.812;2023-04-21T03:58:29;17.45;;;12.63;;
52918;SDS011;38793;52.690;6.812;2023-04-21T04:00:55;20.60;;;11.87;;
52918;SDS011;38793;52.690;6.812;2023-04-21T04:03:21;21.05;;;12.60;;
52918;SDS011;38793;52.690;6.812;2023-04-21T04:05:46;21.98;;;12.23;;
52918;SDS011;38793;52.690;6.812;2023-04-21T04:08:12;20.73;;;12.30;;
52918;SDS011;38793;52.690;6.812;2023-04-21T04:10:38;19.20;;;12.13;;
52918;SDS011;38793;52.690;6.812;2023-04-21T04:13:03;17.23;;;12.37;;
52918;SDS011;38793;52.690;6.812;2023-04-21T04:15:29;22.80;;;12.57;;
52918;SDS011;38793;52.690;6.812;2023-04-21T04:17:55;16.80;;;11.73;;
52918;SDS011;38793;52.690;6.812;2023-04-21T04:20:20;21.67;;;12.07;;
52918;SDS011;38793;52.690;6.812;2023-04-21T04:22:46;17.15;;;12.40;;
52918;SDS011;38793;52.690;6.812;2023-04-21T04:25:12;14.07;;;11.17;;
52918;SDS011;38793;52.690;6.812;2023-04-21T04:27:39;21.48;;;12.10;;
52918;SDS011;38793;52.690;6.812;2023-04-21T04:30:05;18.10;;;10.82;;
52918;SDS011;38793;52.690;6.812;2023-04-21T04:34:57;15.13;;;11.23;;
52918;SDS011;38793;52.690;6.812;2023-04-21T04:37:23;16.52;;;11.93;;
52918;SDS011;38793;52.690;6.812;2023-04-21T04:39:52;19.05;;;11.52;;
52918;SDS011;38793;52.690;6.812;2023-04-21T04:42:18;18.50;;;11.52;;
52918;SDS011;38793;52.690;6.812;2023-04-21T04:44:44;16.58;;;11.00;;
52918;SDS011;38793;52.690;6.812;2023-04-21T04:47:11;17.98;;;11.23;;
52918;SDS011;38793;52.690;6.812;2023-04-21T04:49:37;14.77;;;11.05;;
52918;SDS011;38793;52.690;6.812;2023-04-21T04:52:03;17.50;;;11.43;;
52918;SDS011;38793;52.690;6.812;2023-04-21T04:54:28;17.65;;;11.18;;
52918;SDS011;38793;52.690;6.812;2023-04-21T04:56:54;19.38;;;12.05;;
52918;SDS011;38793;52.690;6.812;2023-04-21T04:59:20;20.80;;;12.32;;
52918;SDS011;38793;52.690;6.812;2023-04-21T05:01:46;17.23;;;10.95;;
52918;SDS011;38793;52.690;6.812;2023-04-21T05:04:11;14.10;;;10.77;;
52918;SDS011;38793;52.690;6.812;2023-04-21T05:06:40;16.58;;;11.48;;
52918;SDS011;38793;52.690;6.812;2023-04-21T05:09:06;14.13;;;11.93;;
52918;SDS011;38793;52.690;6.812;2023-04-21T05:11:32;16.57;;;10.83;;
52918;SDS011;38793;52.690;6.812;2023-04-21T05:13:57;22.47;;;12.47;;
52918;SDS011;38793;52.690;6.812;2023-04-21T05:16:23;11.80;;;9.95;;
52918;SDS011;38793;52.690;6.812;2023-04-21T05:18:49;18.90;;;11.68;;
52918;SDS011;38793;52.690;6.812;2023-04-21T05:21:26;16.90;;;11.90;;
52918;SDS011;38793;52.690;6.812;2023-04-21T05:23:53;14.52;;;10.43;;
52918;SDS011;38793;52.690;6.812;2023-04-21T05:26:20;15.25;;;10.90;;
52918;SDS011;38793;52.690;6.812;2023-04-21T05:28:46;17.15;;;12.23;;
52918;SDS011;38793;52.690;6.812;2023-04-21T05:31:12;15.15;;;10.95;;
52918;SDS011;38793;52.690;6.812;2023-04-21T05:33:38;19.23;;;11.17;;
52918;SDS011;38793;52.690;6.812;2023-04-21T05:36:07;14.93;;;11.53;;
52918;SDS011;38793;52.690;6.812;2023-04-21T05:38:33;14.65;;;11.25;;
52918;SDS011;38793;52.690;6.812;2023-04-21T05:43:25;20.25;;;11.02;;
52918;SDS011;38793;52.690;6.812;2023-04-21T05:45:51;18.70;;;11.25;;
52918;SDS011;38793;52.690;6.812;2023-04-21T05:48:16;14.65;;;11.10;;
52918;SDS011;38793;52.690;6.812;2023-04-21T05:50:42;20.10;;;10.63;;
52918;SDS011;38793;52.690;6.812;2023-04-21T05:53:07;16.83;;;9.83;;
52918;SDS011;38793;52.690;6.812;2023-04-21T05:55:33;17.00;;;9.93;;
52918;SDS011;38793;52.690;6.812;2023-04-21T05:57:59;13.25;;;10.60;;
52918;SDS011;38793;52.690;6.812;2023-04-21T06:00:25;15.43;;;11.10;;
52918;SDS011;38793;52.690;6.812;2023-04-21T06:02:51;15.02;;;10.90;;
52918;SDS011;38793;52.690;6.812;2023-04-21T06:05:16;18.60;;;11.20;;
52918;SDS011;38793;52.690;6.812;2023-04-21T06:07:42;14.05;;;10.40;;
52918;SDS011;38793;52.690;6.812;2023-04-21T06:10:08;14.75;;;10.80;;
52918;SDS011;38793;52.690;6.812;2023-04-21T06:12:35;14.40;;;9.75;;
52918;SDS011;38793;52.690;6.812;2023-04-21T06:15:01;12.63;;;9.32;;
52918;SDS011;38793;52.690;6.812;2023-04-21T06:17:26;17.15;;;10.98;;
52918;SDS011;38793;52.690;6.812;2023-04-21T06:19:52;18.30;;;11.07;;
52918;SDS011;38793;52.690;6.812;2023-04-21T06:22:19;17.73;;;9.95;;
52918;SDS011;38793;52.690;6.812;2023-04-21T06:24:49;20.35;;;11.23;;
52918;SDS011;38793;52.690;6.812;2023-04-21T06:27:14;13.23;;;10.18;;
52918;SDS011;38793;52.690;6.812;2023-04-21T06:29:40;16.02;;;10.43;;
52918;SDS011;38793;52.690;6.812;2023-04-21T06:32:09;17.42;;;10.10;;
52918;SDS011;38793;52.690;6.812;2023-04-21T06:34:36;16.40;;;10.25;;
52918;SDS011;38793;52.690;6.812;2023-04-21T06:37:02;14.82;;;10.32;;
52918;SDS011;38793;52.690;6.812;2023-04-21T06:39:29;18.63;;;9.98;;
52918;SDS011;38793;52.690;6.812;2023-04-21T06:41:55;27.40;;;11.55;;
52918;SDS011;38793;52.690;6.812;2023-04-21T06:44:22;19.13;;;10.05;;
52918;SDS011;38793;52.690;6.812;2023-04-21T06:46:47;13.73;;;9.65;;
52918;SDS011;38793;52.690;6.812;2023-04-21T06:49:13;17.97;;;11.63;;
52918;SDS011;38793;52.690;6.812;2023-04-21T06:51:39;20.00;;;11.45;;
52918;SDS011;38793;52.690;6.812;2023-04-21T06:54:04;17.98;;;10.20;;
52918;SDS011;38793;52.690;6.812;2023-04-21T06:56:30;16.80;;;10.87;;
52918;SDS011;38793;52.690;6.812;2023-04-21T06:58:56;15.20;;;10.90;;
52918;SDS011;38793;52.690;6.812;2023-04-21T07:01:22;19.33;;;10.93;;
52918;SDS011;38793;52.690;6.812;2023-04-21T07:03:50;22.23;;;11.18;;
52918;SDS011;38793;52.690;6.812;2023-04-21T07:06:16;14.43;;;10.90;;
52918;SDS011;38793;52.690;6.812;2023-04-21T07:08:41;16.37;;;10.50;;
52918;SDS011;38793;52.690;6.812;2023-04-21T07:11:07;19.00;;;11.10;;
52918;SDS011;38793;52.690;6.812;2023-04-21T07:13:32;15.65;;;11.23;;
52918;SDS011;38793;52.690;6.812;2023-04-21T07:15:58;23.10;;;10.90;;
52918;SDS011;38793;52.690;6.812;2023-04-21T07:18:24;14.55;;;11.13;;
52918;SDS011;38793;52.690;6.812;2023-04-21T07:20:50;292.85;;;30.40;;
52918;SDS011;38793;52.690;6.812;2023-04-21T07:23:16;22.17;;;11.00;;
52918;SDS011;38793;52.690;6.812;2023-04-21T07:25:42;24.50;;;11.52;;
52918;SDS011;38793;52.690;6.812;2023-04-21T07:28:07;24.08;;;11.35;;
52918;SDS011;38793;52.690;6.812;2023-04-21T07:30:34;20.40;;;10.77;;
52918;SDS011;38793;52.690;6.812;2023-04-21T07:33:00;22.52;;;10.25;;
52918;SDS011;38793;52.690;6.812;2023-04-21T07:35:26;22.03;;;10.67;;
52918;SDS011;38793;52.690;6.812;2023-04-21T07:37:51;20.50;;;10.07;;
52918;SDS011;38793;52.690;6.812;2023-04-21T07:40:17;16.55;;;9.85;;
52918;SDS011;38793;52.690;6.812;2023-04-21T07:42:43;13.68;;;9.98;;
52918;SDS011;38793;52.690;6.812;2023-04-21T07:45:08;18.37;;;10.90;;
52918;SDS011;38793;52.690;6.812;2023-04-21T07:47:34;24.30;;;12.68;;
52918;SDS011;38793;52.690;6.812;2023-04-21T07:50:00;17.77;;;10.40;;
52918;SDS011;38793;52.690;6.812;2023-04-21T07:52:26;13.50;;;9.10;;
52918;SDS011;38793;52.690;6.812;2023-04-21T07:54:51;23.00;;;11.27;;
52918;SDS011;38793;52.690;6.812;2023-04-21T07:57:17;15.10;;;10.45;;
52918;SDS011;38793;52.690;6.812;2023-04-21T07:59:43;14.68;;;10.75;;
52918;SDS011;38793;52.690;6.812;2023-04-21T08:02:08;21.63;;;10.40;;
52918;SDS011;38793;52.690;6.812;2023-04-21T08:04:34;15.02;;;10.98;;
52918;SDS011;38793;52.690;6.812;2023-04-21T08:06:59;18.35;;;10.32;;
52918;SDS011;38793;52.690;6.812;2023-04-21T08:09:25;27.70;;;10.57;;
52918;SDS011;38793;52.690;6.812;2023-04-21T08:11:51;21.23;;;11.23;;
52918;SDS011;38793;52.690;6.812;2023-04-21T08:16:43;18.80;;;11.07;;
52918;SDS011;38793;52.690;6.812;2023-04-21T08:19:09;15.95;;;10.27;;
52918;SDS011;38793;52.690;6.812;2023-04-21T08:21:34;17.90;;;10.18;;
52918;SDS011;38793;52.690;6.812;2023-04-21T08:24:01;20.27;;;11.40;;
52918;SDS011;38793;52.690;6.812;2023-04-21T08:26:26;14.68;;;10.48;;
52918;SDS011;38793;52.690;6.812;2023-04-21T08:28:54;19.45;;;11.65;;
52918;SDS011;38793;52.690;6.812;2023-04-21T08:33:46;15.60;;;9.85;;
52918;SDS011;38793;52.690;6.812;2023-04-21T08:36:12;17.20;;;10.88;;
52918;SDS011;38793;52.690;6.812;2023-04-21T08:38:37;18.90;;;11.10;;
52918;SDS011;38793;52.690;6.812;2023-04-21T08:41:03;32.15;;;11.85;;
52918;SDS011;38793;52.690;6.812;2023-04-21T08:45:55;15.98;;;10.65;;
52918;SDS011;38793;52.690;6.812;2023-04-21T08:48:21;14.73;;;10.13;;
52918;SDS011;38793;52.690;6.812;2023-04-21T08:50:49;16.20;;;11.18;;
52918;SDS011;38793;52.690;6.812;2023-04-21T08:53:18;18.15;;;10.30;;
52918;SDS011;38793;52.690;6.812;2023-04-21T08:55:44;18.10;;;10.35;;
52918;SDS011;38793;52.690;6.812;2023-04-21T08:58:10;23.27;;;11.30;;
52918;SDS011;38793;52.690;6.812;2023-04-21T09:00:37;13.85;;;10.13;;
52918;SDS011;38793;52.690;6.812;2023-04-21T09:03:05;18.05;;;11.18;;
52918;SDS011;38793;52.690;6.812;2023-04-21T09:05:32;20.08;;;10.18;;
52918;SDS011;38793;52.690;6.812;2023-04-21T09:08:11;152.18;;;20.17;;
52918;SDS011;38793;52.690;6.812;2023-04-21T09:10:45;29.45;;;10.68;;
52918;SDS011;38793;52.690;6.812;2023-04-21T09:13:16;21.73;;;10.60;;
52918;SDS011;38793;52.690;6.812;2023-04-21T09:15:43;18.75;;;10.30;;
52918;SDS011;38793;52.690;6.812;2023-04-21T09:18:15;20.50;;;10.27;;
52918;SDS011;38793;52.690;6.812;2023-04-21T09:20:42;17.10;;;9.73;;
52918;SDS011;38793;52.690;6.812;2023-04-21T09:23:09;19.92;;;10.20;;
52918;SDS011;38793;52.690;6.812;2023-04-21T09:25:37;27.52;;;11.45;;
52918;SDS011;38793;52.690;6.812;2023-04-21T09:28:07;19.55;;;10.70;;
52918;SDS011;38793;52.690;6.812;2023-04-21T09:30:35;22.77;;;9.88;;
52918;SDS011;38793;52.690;6.812;2023-04-21T09:33:01;24.27;;;11.00;;
52918;SDS011;38793;52.690;6.812;2023-04-21T09:35:31;26.67;;;11.15;;
52918;SDS011;38793;52.690;6.812;2023-04-21T09:37:59;17.08;;;11.18;;
52918;SDS011;38793;52.690;6.812;2023-04-21T09:40:27;16.70;;;10.73;;
52918;SDS011;38793;52.690;6.812;2023-04-21T09:42:55;19.70;;;10.95;;
52918;SDS011;38793;52.690;6.812;2023-04-21T09:45:24;23.60;;;10.73;;
52918;SDS011;38793;52.690;6.812;2023-04-21T09:47:53;19.88;;;11.00;;
52918;SDS011;38793;52.690;6.812;2023-04-21T09:50:21;22.80;;;11.00;;
52918;SDS011;38793;52.690;6.812;2023-04-21T09:52:49;15.65;;;9.80;;
52918;SDS011;38793;52.690;6.812;2023-04-21T09:55:15;19.80;;;11.50;;
52918;SDS011;38793;52.690;6.812;2023-04-21T09:57:43;21.38;;;11.63;;
52918;SDS011;38793;52.690;6.812;2023-04-21T10:00:12;39.28;;;12.95;;
52918;SDS011;38793;52.690;6.812;2023-04-21T10:02:48;17.05;;;12.68;;
52918;SDS011;38793;52.690;6.812;2023-04-21T10:05:15;25.88;;;11.13;;
52918;SDS011;38793;52.690;6.812;2023-04-21T10:07:41;20.77;;;12.65;;
52918;SDS011;38793;52.690;6.812;2023-04-21T10:10:14;23.20;;;11.15;;
52918;SDS011;38793;52.690;6.812;2023-04-21T10:12:44;17.23;;;11.37;;
52918;SDS011;38793;52.690;6.812;2023-04-21T10:20:52;18.95;;;12.02;;
52918;SDS011;38793;52.690;6.812;2023-04-21T10:23:24;15.68;;;11.35;;
52918;SDS011;38793;52.690;6.812;2023-04-21T10:25:51;15.05;;;11.10;;
52918;SDS011;38793;52.690;6.812;2023-04-21T10:28:17;21.98;;;11.65;;
52918;SDS011;38793;52.690;6.812;2023-04-21T10:30:43;16.55;;;11.00;;
52918;SDS011;38793;52.690;6.812;2023-04-21T10:33:08;22.85;;;10.98;;
52918;SDS011;38793;52.690;6.812;2023-04-21T10:36:09;18.40;;;10.90;;
52918;SDS011;38793;52.690;6.812;2023-04-21T10:38:40;21.00;;;11.98;;
52918;SDS011;38793;52.690;6.812;2023-04-21T10:41:25;17.65;;;11.00;;
52918;SDS011;38793;52.690;6.812;2023-04-21T10:43:52;22.60;;;12.05;;
52918;SDS011;38793;52.690;6.812;2023-04-21T10:46:30;20.10;;;11.43;;
52918;SDS011;38793;52.690;6.812;2023-04-21T10:49:03;14.85;;;11.43;;
52918;SDS011;38793;52.690;6.812;2023-04-21T10:51:30;17.67;;;11.85;;
52918;SDS011;38793;52.690;6.812;2023-04-21T10:53:57;17.45;;;11.90;;
52918;SDS011;38793;52.690;6.812;2023-04-21T10:56:22;13.98;;;11.93;;
52918;SDS011;38793;52.690;6.812;2023-04-21T10:58:50;20.10;;;11.35;;
52918;SDS011;38793;52.690;6.812;2023-04-21T11:01:17;18.35;;;11.60;;
52918;SDS011;38793;52.690;6.812;2023-04-21T11:03:43;17.10;;;12.27;;
52918;SDS011;38793;52.690;6.812;2023-04-21T11:08:53;13.27;;;10.55;;
52918;SDS011;38793;52.690;6.812;2023-04-21T11:11:22;17.27;;;11.73;;
52918;SDS011;38793;52.690;6.812;2023-04-21T11:13:48;14.98;;;10.90;;
52918;SDS011;38793;52.690;6.812;2023-04-21T11:16:16;24.65;;;10.60;;
52918;SDS011;38793;52.690;6.812;2023-04-21T11:18:42;14.93;;;11.13;;
52918;SDS011;38793;52.690;6.812;2023-04-21T11:21:09;18.05;;;11.57;;
52918;SDS011;38793;52.690;6.812;2023-04-21T11:23:39;15.20;;;10.55;;
52918;SDS011;38793;52.690;6.812;2023-04-21T11:26:06;20.20;;;11.70;;
52918;SDS011;38793;52.690;6.812;2023-04-21T11:28:31;14.00;;;10.20;;
52918;SDS011;38793;52.690;6.812;2023-04-21T11:30:57;20.02;;;10.10;;
52918;SDS011;38793;52.690;6.812;2023-04-21T11:33:23;16.10;;;10.10;;
52918;SDS011;38793;52.690;6.812;2023-04-21T11:35:48;17.92;;;10.15;;
52918;SDS011;38793;52.690;6.812;2023-04-21T11:38:15;14.32;;;9.45;;
52918;SDS011;38793;52.690;6.812;2023-04-21T11:40:43;51.30;;;11.38;;
52918;SDS011;38793;52.690;6.812;2023-04-21T11:43:10;12.13;;;8.75;;
52918;SDS011;38793;52.690;6.812;2023-04-21T11:45:36;17.25;;;9.05;;
52918;SDS011;38793;52.690;6.812;2023-04-21T11:48:13;12.52;;;8.57;;
52918;SDS011;38793;52.690;6.812;2023-04-21T11:50:45;10.35;;;8.77;;
52918;SDS011;38793;52.690;6.812;2023-04-21T11:53:13;18.65;;;9.77;;
52918;SDS011;38793;52.690;6.812;2023-04-21T11:55:42;12.15;;;9.25;;
52918;SDS011;38793;52.690;6.812;2023-04-21T11:58:10;12.95;;;9.27;;
52918;SDS011;38793;52.690;6.812;2023-04-21T12:00:39;16.95;;;10.23;;
52918;SDS011;38793;52.690;6.812;2023-04-21T12:03:07;13.75;;;9.50;;
52918;SDS011;38793;52.690;6.812;2023-04-21T12:05:34;16.02;;;8.57;;
52918;SDS011;38793;52.690;6.812;2023-04-21T12:08:00;14.18;;;8.98;;
52918;SDS011;38793;52.690;6.812;2023-04-21T12:10:27;21.48;;;8.98;;
52918;SDS011;38793;52.690;6.812;2023-04-21T12:12:54;12.82;;;9.02;;
52918;SDS011;38793;52.690;6.812;2023-04-21T12:15:21;17.02;;;8.45;;
52918;SDS011;38793;52.690;6.812;2023-04-21T12:20:15;10.65;;;8.00;;
52918;SDS011;38793;52.690;6.812;2023-04-21T12:22:44;15.95;;;10.02;;
52918;SDS011;38793;52.690;6.812;2023-04-21T12:27:36;14.63;;;7.47;;
52918;SDS011;38793;52.690;6.812;2023-04-21T12:30:02;12.38;;;7.38;;
52918;SDS011;38793;52.690;6.812;2023-04-21T12:32:28;14.68;;;8.18;;
52918;SDS011;38793;52.690;6.812;2023-04-21T12:34:53;10.70;;;7.43;;
52918;SDS011;38793;52.690;6.812;2023-04-21T12:37:20;12.70;;;7.32;;
52918;SDS011;38793;52.690;6.812;2023-04-21T12:39:46;12.65;;;7.25;;
52918;SDS011;38793;52.690;6.812;2023-04-21T12:42:11;15.07;;;7.40;;
52918;SDS011;38793;52.690;6.812;2023-04-21T12:44:38;12.90;;;6.85;;
52918;SDS011;38793;52.690;6.812;2023-04-21T12:47:04;12.15;;;7.28;;
52918;SDS011;38793;52.690;6.812;2023-04-21T12:49:30;10.70;;;6.53;;
52918;SDS011;38793;52.690;6.812;2023-04-21T12:51:56;13.85;;;7.25;;
52918;SDS011;38793;52.690;6.812;2023-04-21T12:54:21;11.40;;;6.38;;
52918;SDS011;38793;52.690;6.812;2023-04-21T12:56:47;134.98;;;14.05;;
52918;SDS011;38793;52.690;6.812;2023-04-21T12:59:13;6.68;;;4.45;;
52918;SDS011;38793;52.690;6.812;2023-04-21T13:01:39;23.58;;;5.38;;
52918;SDS011;38793;52.690;6.812;2023-04-21T13:04:05;17.75;;;5.15;;
52918;SDS011;38793;52.690;6.812;2023-04-21T13:06:31;11.32;;;4.28;;
52918;SDS011;38793;52.690;6.812;2023-04-21T13:08:57;8.88;;;3.47;;
52918;SDS011;38793;52.690;6.812;2023-04-21T13:11:23;11.10;;;4.38;;
52918;SDS011;38793;52.690;6.812;2023-04-21T13:13:49;8.52;;;4.72;;
52918;SDS011;38793;52.690;6.812;2023-04-21T13:16:15;134.00;;;12.18;;
52918;SDS011;38793;52.690;6.812;2023-04-21T13:18:41;10.75;;;4.30;;
52918;SDS011;38793;52.690;6.812;2023-04-21T13:21:06;33.38;;;5.38;;
52918;SDS011;38793;52.690;6.812;2023-04-21T13:23:32;30.50;;;6.28;;
52918;SDS011;38793;52.690;6.812;2023-04-21T13:25:58;12.20;;;4.25;;
52918;SDS011;38793;52.690;6.812;2023-04-21T13:28:23;12.98;;;3.90;;
52918;SDS011;38793;52.690;6.812;2023-04-21T13:30:50;35.67;;;5.43;;
52918;SDS011;38793;52.690;6.812;2023-04-21T13:33:17;50.28;;;6.28;;
52918;SDS011;38793;52.690;6.812;2023-04-21T13:35:43;5.88;;;4.22;;
52918;SDS011;38793;52.690;6.812;2023-04-21T13:38:08;6.70;;;4.32;;
52918;SDS011;38793;52.690;6.812;2023-04-21T13:40:34;15.65;;;4.40;;
52918;SDS011;38793;52.690;6.812;2023-04-21T13:45:26;5.50;;;3.28;;
52918;SDS011;38793;52.690;6.812;2023-04-21T13:47:51;18.35;;;3.80;;
52918;SDS011;38793;52.690;6.812;2023-04-21T13:50:18;6.45;;;3.28;;
52918;SDS011;38793;52.690;6.812;2023-04-21T13:52:43;16.77;;;3.72;;
52918;SDS011;38793;52.690;6.812;2023-04-21T13:57:35;11.88;;;2.72;;
52918;SDS011;38793;52.690;6.812;2023-04-21T14:00:02;19.02;;;3.60;;
52918;SDS011;38793;52.690;6.812;2023-04-21T14:02:33;11.00;;;2.72;;
52918;SDS011;38793;52.690;6.812;2023-04-21T14:04:58;11.00;;;3.03;;
52918;SDS011;38793;52.690;6.812;2023-04-21T14:07:24;6.07;;;2.85;;
52918;SDS011;38793;52.690;6.812;2023-04-21T14:09:50;9.38;;;2.75;;
52918;SDS011;38793;52.690;6.812;2023-04-21T14:12:16;4.95;;;2.05;;
52918;SDS011;38793;52.690;6.812;2023-04-21T14:14:42;8.65;;;2.70;;
52918;SDS011;38793;52.690;6.812;2023-04-21T14:17:07;8.57;;;3.25;;
52918;SDS011;38793;52.690;6.812;2023-04-21T14:19:33;9.43;;;3.03;;
52918;SDS011;38793;52.690;6.812;2023-04-21T14:24:25;10.73;;;2.85;;
52918;SDS011;38793;52.690;6.812;2023-04-21T14:26:53;9.07;;;2.50;;
52918;SDS011;38793;52.690;6.812;2023-04-21T14:29:19;4.72;;;1.83;;
52918;SDS011;38793;52.690;6.812;2023-04-21T14:31:45;10.02;;;3.50;;
52918;SDS011;38793;52.690;6.812;2023-04-21T14:34:11;11.23;;;2.90;;
52918;SDS011;38793;52.690;6.812;2023-04-21T14:36:36;7.47;;;2.38;;
52918;SDS011;38793;52.690;6.812;2023-04-21T14:39:02;9.95;;;2.83;;
52918;SDS011;38793;52.690;6.812;2023-04-21T14:43:54;8.15;;;2.22;;
52918;SDS011;38793;52.690;6.812;2023-04-21T14:46:21;14.82;;;2.33;;
52918;SDS011;38793;52.690;6.812;2023-04-21T14:48:47;12.77;;;2.17;;
52918;SDS011;38793;52.690;6.812;2023-04-21T14:51:13;7.65;;;1.90;;
52918;SDS011;38793;52.690;6.812;2023-04-21T14:53:39;6.80;;;2.25;;
52918;SDS011;38793;52.690;6.812;2023-04-21T14:56:04;14.75;;;2.20;;
52918;SDS011;38793;52.690;6.812;2023-04-21T14:58:30;7.13;;;2.38;;
52918;SDS011;38793;52.690;6.812;2023-04-21T15:00:56;11.93;;;2.05;;
52918;SDS011;38793;52.690;6.812;2023-04-21T15:03:22;8.45;;;2.20;;
52918;SDS011;38793;52.690;6.812;2023-04-21T15:05:48;8.25;;;2.50;;
52918;SDS011;38793;52.690;6.812;2023-04-21T15:08:13;9.40;;;1.67;;
52918;SDS011;38793;52.690;6.812;2023-04-21T15:10:42;10.70;;;1.75;;
52918;SDS011;38793;52.690;6.812;2023-04-21T15:13:09;9.48;;;1.88;;